sensor_id;sensor_type;location;lat;lon;timestamp;P1;durP1;ratioP1;P2;durP2;ratioP2
2452;SDS011;63678;47.994;7.854;2023-03-01T00:01:27;27.00;;;14.67;;
2452;SDS011;63678;47.994;7.854;2023-03-01T00:04:01;27.65;;;14.38;;
2452;SDS011;63678;47.994;7.854;2023-03-01T00:06:34;26.35;;;14.07;;
2452;SDS011;63678;47.994;7.854;2023-03-01T00:09:07;25.00;;;14.20;;
2452;SDS011;63678;47.994;7.854;2023-03-01T00:11:39;25.30;;;14.15;;
2452;SDS011;63678;47.994;7.854;2023-03-01T00:14:12;29.13;;;15.50;;
2452;SDS011;63678;47.994;7.854;2023-03-01T00:16:46;23.80;;;13.15;;
2452;SDS011;63678;47.994;7.854;2023-03-01T00:19:19;25.30;;;14.82;;
2452;SDS011;63678;47.994;7.854;2023-03-01T00:21:53;29.65;;;15.60;;
2452;SDS011;63678;47.994;7.854;2023-03-01T00:24:26;28.55;;;15.27;;
2452;SDS011;63678;47.994;7.854;2023-03-01T00:26:58;26.90;;;15.30;;
2452;SDS011;63678;47.994;7.854;2023-03-01T00:29:30;27.75;;;15.10;;
2452;SDS011;63678;47.994;7.854;2023-03-01T00:32:03;27.50;;;14.82;;
2452;SDS011;63678;47.994;7.854;2023-03-01T00:34:38;25.13;;;14.35;;
2452;SDS011;63678;47.994;7.854;2023-03-01T00:37:13;27.13;;;14.63;;
2452;SDS011;63678;47.994;7.854;2023-03-01T00:39:45;29.17;;;13.73;;
2452;SDS011;63678;47.994;7.854;2023-03-01T00:42:35;29.63;;;15.50;;
2452;SDS011;63678;47.994;7.854;2023-03-01T00:45:08;29.60;;;14.50;;
2452;SDS011;63678;47.994;7.854;2023-03-01T00:47:41;23.50;;;12.52;;
2452;SDS011;63678;47.994;7.854;2023-03-01T00:50:35;26.83;;;13.57;;
2452;SDS011;63678;47.994;7.854;2023-03-01T00:53:28;25.47;;;14.53;;
2452;SDS011;63678;47.994;7.854;2023-03-01T00:56:01;30.63;;;15.00;;
2452;SDS011;63678;47.994;7.854;2023-03-01T00:58:35;25.77;;;14.65;;
2452;SDS011;63678;47.994;7.854;2023-03-01T01:04:00;25.45;;;12.55;;
2452;SDS011;63678;47.994;7.854;2023-03-01T01:07:03;28.23;;;14.13;;
2452;SDS011;63678;47.994;7.854;2023-03-01T01:09:36;28.42;;;14.02;;
2452;SDS011;63678;47.994;7.854;2023-03-01T01:12:08;28.83;;;14.07;;
2452;SDS011;63678;47.994;7.854;2023-03-01T01:14:41;28.02;;;15.07;;
2452;SDS011;63678;47.994;7.854;2023-03-01T01:17:13;30.58;;;15.20;;
2452;SDS011;63678;47.994;7.854;2023-03-01T01:19:45;28.43;;;15.50;;
2452;SDS011;63678;47.994;7.854;2023-03-01T01:22:18;26.88;;;13.98;;
2452;SDS011;63678;47.994;7.854;2023-03-01T01:24:50;24.35;;;12.60;;
2452;SDS011;63678;47.994;7.854;2023-03-01T01:27:22;26.75;;;12.98;;
2452;SDS011;63678;47.994;7.854;2023-03-01T01:29:55;22.95;;;12.88;;
2452;SDS011;63678;47.994;7.854;2023-03-01T01:32:27;24.07;;;12.43;;
2452;SDS011;63678;47.994;7.854;2023-03-01T01:35:00;26.40;;;13.02;;
2452;SDS011;63678;47.994;7.854;2023-03-01T01:37:34;22.58;;;12.00;;
2452;SDS011;63678;47.994;7.854;2023-03-01T01:40:06;22.95;;;12.13;;
2452;SDS011;63678;47.994;7.854;2023-03-01T01:42:41;24.45;;;12.85;;
2452;SDS011;63678;47.994;7.854;2023-03-01T01:48:06;24.45;;;12.95;;
2452;SDS011;63678;47.994;7.854;2023-03-01T01:50:45;26.38;;;13.25;;
2452;SDS011;63678;47.994;7.854;2023-03-01T01:53:31;25.63;;;13.20;;
2452;SDS011;63678;47.994;7.854;2023-03-01T01:56:04;25.52;;;13.73;;
2452;SDS011;63678;47.994;7.854;2023-03-01T01:58:41;23.10;;;13.00;;
2452;SDS011;63678;47.994;7.854;2023-03-01T02:01:17;25.70;;;13.63;;
2452;SDS011;63678;47.994;7.854;2023-03-01T02:03:50;28.42;;;15.55;;
2452;SDS011;63678;47.994;7.854;2023-03-01T02:06:31;27.35;;;14.75;;
2452;SDS011;63678;47.994;7.854;2023-03-01T02:09:14;27.77;;;14.27;;
2452;SDS011;63678;47.994;7.854;2023-03-01T02:11:50;26.60;;;14.40;;
2452;SDS011;63678;47.994;7.854;2023-03-01T02:14:23;26.70;;;14.20;;
2452;SDS011;63678;47.994;7.854;2023-03-01T02:16:56;27.98;;;15.10;;
2452;SDS011;63678;47.994;7.854;2023-03-01T02:19:44;28.88;;;15.35;;
2452;SDS011;63678;47.994;7.854;2023-03-01T02:22:33;27.08;;;14.20;;
2452;SDS011;63678;47.994;7.854;2023-03-01T02:30:49;29.67;;;15.50;;
2452;SDS011;63678;47.994;7.854;2023-03-01T02:33:41;27.17;;;14.90;;
2452;SDS011;63678;47.994;7.854;2023-03-01T02:36:17;29.58;;;15.75;;
2452;SDS011;63678;47.994;7.854;2023-03-01T02:38:57;27.63;;;15.07;;
2452;SDS011;63678;47.994;7.854;2023-03-01T02:41:36;29.75;;;14.27;;
2452;SDS011;63678;47.994;7.854;2023-03-01T02:44:10;28.02;;;15.02;;
2452;SDS011;63678;47.994;7.854;2023-03-01T02:46:43;27.00;;;13.70;;
2452;SDS011;63678;47.994;7.854;2023-03-01T02:49:38;30.35;;;14.05;;
2452;SDS011;63678;47.994;7.854;2023-03-01T02:55:14;27.48;;;13.40;;
2452;SDS011;63678;47.994;7.854;2023-03-01T02:57:48;28.45;;;14.68;;
2452;SDS011;63678;47.994;7.854;2023-03-01T03:00:25;30.13;;;14.13;;
2452;SDS011;63678;47.994;7.854;2023-03-01T03:03:04;25.95;;;14.75;;
2452;SDS011;63678;47.994;7.854;2023-03-01T03:05:38;28.33;;;14.23;;
2452;SDS011;63678;47.994;7.854;2023-03-01T03:08:10;27.58;;;15.18;;
2452;SDS011;63678;47.994;7.854;2023-03-01T03:10:43;27.85;;;15.43;;
2452;SDS011;63678;47.994;7.854;2023-03-01T03:13:18;28.45;;;15.07;;
2452;SDS011;63678;47.994;7.854;2023-03-01T03:15:51;30.50;;;14.77;;
2452;SDS011;63678;47.994;7.854;2023-03-01T03:18:23;28.27;;;13.77;;
2452;SDS011;63678;47.994;7.854;2023-03-01T03:20:59;28.80;;;15.50;;
2452;SDS011;63678;47.994;7.854;2023-03-01T03:23:31;26.40;;;14.90;;
2452;SDS011;63678;47.994;7.854;2023-03-01T03:26:05;31.02;;;15.27;;
2452;SDS011;63678;47.994;7.854;2023-03-01T03:28:37;27.83;;;14.52;;
2452;SDS011;63678;47.994;7.854;2023-03-01T03:31:11;28.83;;;14.17;;
2452;SDS011;63678;47.994;7.854;2023-03-01T03:33:43;25.33;;;14.43;;
2452;SDS011;63678;47.994;7.854;2023-03-01T03:36:37;31.40;;;15.10;;
2452;SDS011;63678;47.994;7.854;2023-03-01T03:39:09;28.70;;;15.55;;
2452;SDS011;63678;47.994;7.854;2023-03-01T03:41:42;30.40;;;15.63;;
2452;SDS011;63678;47.994;7.854;2023-03-01T03:44:16;31.57;;;15.53;;
2452;SDS011;63678;47.994;7.854;2023-03-01T03:46:48;29.27;;;14.20;;
2452;SDS011;63678;47.994;7.854;2023-03-01T03:49:21;30.00;;;15.25;;
2452;SDS011;63678;47.994;7.854;2023-03-01T03:51:54;28.73;;;15.35;;
2452;SDS011;63678;47.994;7.854;2023-03-01T03:54:26;29.33;;;14.38;;
2452;SDS011;63678;47.994;7.854;2023-03-01T03:56:59;25.97;;;13.87;;
2452;SDS011;63678;47.994;7.854;2023-03-01T03:59:55;26.60;;;14.30;;
2452;SDS011;63678;47.994;7.854;2023-03-01T04:02:27;31.58;;;15.80;;
2452;SDS011;63678;47.994;7.854;2023-03-01T04:05:00;32.03;;;15.57;;
2452;SDS011;63678;47.994;7.854;2023-03-01T04:07:34;29.95;;;15.05;;
2452;SDS011;63678;47.994;7.854;2023-03-01T04:10:13;30.50;;;15.17;;
2452;SDS011;63678;47.994;7.854;2023-03-01T04:12:49;29.05;;;14.50;;
2452;SDS011;63678;47.994;7.854;2023-03-01T04:15:22;27.83;;;14.35;;
2452;SDS011;63678;47.994;7.854;2023-03-01T04:17:55;27.80;;;14.23;;
2452;SDS011;63678;47.994;7.854;2023-03-01T04:20:28;31.77;;;15.57;;
2452;SDS011;63678;47.994;7.854;2023-03-01T04:23:10;27.77;;;13.43;;
2452;SDS011;63678;47.994;7.854;2023-03-01T04:25:54;34.72;;;15.73;;
2452;SDS011;63678;47.994;7.854;2023-03-01T04:28:33;29.85;;;14.98;;
2452;SDS011;63678;47.994;7.854;2023-03-01T04:31:11;28.15;;;14.75;;
2452;SDS011;63678;47.994;7.854;2023-03-01T04:33:49;28.70;;;15.13;;
2452;SDS011;63678;47.994;7.854;2023-03-01T04:36:25;27.77;;;14.13;;
2452;SDS011;63678;47.994;7.854;2023-03-01T04:39:21;28.45;;;14.88;;
2452;SDS011;63678;47.994;7.854;2023-03-01T04:41:53;31.25;;;14.85;;
2452;SDS011;63678;47.994;7.854;2023-03-01T04:44:26;29.20;;;14.68;;
2452;SDS011;63678;47.994;7.854;2023-03-01T04:46:59;32.70;;;16.17;;
2452;SDS011;63678;47.994;7.854;2023-03-01T04:49:31;30.73;;;15.83;;
2452;SDS011;63678;47.994;7.854;2023-03-01T04:52:04;26.75;;;15.35;;
2452;SDS011;63678;47.994;7.854;2023-03-01T04:54:37;30.60;;;17.05;;
2452;SDS011;63678;47.994;7.854;2023-03-01T04:57:09;31.17;;;15.90;;
2452;SDS011;63678;47.994;7.854;2023-03-01T04:59:42;32.55;;;15.93;;
2452;SDS011;63678;47.994;7.854;2023-03-01T05:02:15;35.07;;;16.03;;
2452;SDS011;63678;47.994;7.854;2023-03-01T05:04:47;34.67;;;16.30;;
2452;SDS011;63678;47.994;7.854;2023-03-01T05:07:19;29.60;;;15.80;;
2452;SDS011;63678;47.994;7.854;2023-03-01T05:09:55;35.67;;;15.63;;
2452;SDS011;63678;47.994;7.854;2023-03-01T05:12:28;22.35;;;12.15;;
2452;SDS011;63678;47.994;7.854;2023-03-01T05:15:01;30.70;;;16.80;;
2452;SDS011;63678;47.994;7.854;2023-03-01T05:17:38;31.17;;;15.25;;
2452;SDS011;63678;47.994;7.854;2023-03-01T05:20:10;29.83;;;15.15;;
2452;SDS011;63678;47.994;7.854;2023-03-01T05:22:43;34.33;;;17.40;;
2452;SDS011;63678;47.994;7.854;2023-03-01T05:25:15;32.78;;;16.63;;
2452;SDS011;63678;47.994;7.854;2023-03-01T05:27:48;29.30;;;16.47;;
2452;SDS011;63678;47.994;7.854;2023-03-01T05:30:21;32.83;;;15.30;;
2452;SDS011;63678;47.994;7.854;2023-03-01T05:32:56;28.77;;;16.17;;
2452;SDS011;63678;47.994;7.854;2023-03-01T05:35:28;32.20;;;16.67;;
2452;SDS011;63678;47.994;7.854;2023-03-01T05:38:01;31.35;;;16.30;;
2452;SDS011;63678;47.994;7.854;2023-03-01T05:40:36;27.97;;;14.53;;
2452;SDS011;63678;47.994;7.854;2023-03-01T05:43:08;34.05;;;16.30;;
2452;SDS011;63678;47.994;7.854;2023-03-01T05:45:41;31.10;;;16.38;;
2452;SDS011;63678;47.994;7.854;2023-03-01T05:48:15;34.88;;;15.88;;
2452;SDS011;63678;47.994;7.854;2023-03-01T05:50:47;32.08;;;17.00;;
2452;SDS011;63678;47.994;7.854;2023-03-01T05:53:20;32.30;;;16.03;;
2452;SDS011;63678;47.994;7.854;2023-03-01T05:55:53;36.67;;;16.63;;
2452;SDS011;63678;47.994;7.854;2023-03-01T05:58:25;32.53;;;16.83;;
2452;SDS011;63678;47.994;7.854;2023-03-01T06:00:58;34.40;;;16.48;;
2452;SDS011;63678;47.994;7.854;2023-03-01T06:03:33;32.13;;;16.45;;
2452;SDS011;63678;47.994;7.854;2023-03-01T06:06:05;28.20;;;14.97;;
2452;SDS011;63678;47.994;7.854;2023-03-01T06:08:38;31.95;;;16.67;;
2452;SDS011;63678;47.994;7.854;2023-03-01T06:11:11;35.08;;;16.65;;
2452;SDS011;63678;47.994;7.854;2023-03-01T06:13:44;32.88;;;16.17;;
2452;SDS011;63678;47.994;7.854;2023-03-01T06:16:17;37.35;;;17.77;;
2452;SDS011;63678;47.994;7.854;2023-03-01T06:18:50;36.43;;;17.03;;
2452;SDS011;63678;47.994;7.854;2023-03-01T06:21:23;30.92;;;16.80;;
2452;SDS011;63678;47.994;7.854;2023-03-01T06:23:55;30.30;;;14.60;;
2452;SDS011;63678;47.994;7.854;2023-03-01T06:26:48;30.20;;;15.43;;
2452;SDS011;63678;47.994;7.854;2023-03-01T06:29:21;31.63;;;16.38;;
2452;SDS011;63678;47.994;7.854;2023-03-01T06:31:54;32.40;;;16.30;;
2452;SDS011;63678;47.994;7.854;2023-03-01T06:34:47;37.05;;;17.77;;
2452;SDS011;63678;47.994;7.854;2023-03-01T06:37:21;31.08;;;16.30;;
2452;SDS011;63678;47.994;7.854;2023-03-01T06:39:53;31.75;;;17.33;;
2452;SDS011;63678;47.994;7.854;2023-03-01T06:42:26;33.92;;;16.98;;
2452;SDS011;63678;47.994;7.854;2023-03-01T06:44:58;35.67;;;17.73;;
2452;SDS011;63678;47.994;7.854;2023-03-01T06:47:32;35.65;;;16.05;;
2452;SDS011;63678;47.994;7.854;2023-03-01T06:50:05;31.05;;;15.82;;
2452;SDS011;63678;47.994;7.854;2023-03-01T06:52:38;33.47;;;16.80;;
2452;SDS011;63678;47.994;7.854;2023-03-01T06:55:11;35.53;;;16.73;;
2452;SDS011;63678;47.994;7.854;2023-03-01T06:57:45;37.90;;;16.73;;
2452;SDS011;63678;47.994;7.854;2023-03-01T07:00:17;36.30;;;17.55;;
2452;SDS011;63678;47.994;7.854;2023-03-01T07:02:57;33.33;;;16.30;;
2452;SDS011;63678;47.994;7.854;2023-03-01T07:05:32;33.50;;;16.88;;
2452;SDS011;63678;47.994;7.854;2023-03-01T07:08:05;35.60;;;17.30;;
2452;SDS011;63678;47.994;7.854;2023-03-01T07:10:39;36.77;;;17.53;;
2452;SDS011;63678;47.994;7.854;2023-03-01T07:13:10;33.97;;;17.23;;
2452;SDS011;63678;47.994;7.854;2023-03-01T07:15:44;30.92;;;17.58;;
2452;SDS011;63678;47.994;7.854;2023-03-01T07:18:19;32.42;;;16.85;;
2452;SDS011;63678;47.994;7.854;2023-03-01T07:20:51;31.88;;;16.25;;
2452;SDS011;63678;47.994;7.854;2023-03-01T07:23:47;33.00;;;17.03;;
2452;SDS011;63678;47.994;7.854;2023-03-01T07:26:20;33.60;;;15.90;;
2452;SDS011;63678;47.994;7.854;2023-03-01T07:28:55;34.55;;;16.75;;
2452;SDS011;63678;47.994;7.854;2023-03-01T07:31:31;31.30;;;16.80;;
2452;SDS011;63678;47.994;7.854;2023-03-01T07:34:25;34.05;;;17.63;;
2452;SDS011;63678;47.994;7.854;2023-03-01T07:36:58;36.80;;;16.47;;
2452;SDS011;63678;47.994;7.854;2023-03-01T07:39:30;31.38;;;17.38;;
2452;SDS011;63678;47.994;7.854;2023-03-01T07:42:04;31.95;;;16.27;;
2452;SDS011;63678;47.994;7.854;2023-03-01T07:44:37;37.00;;;17.00;;
2452;SDS011;63678;47.994;7.854;2023-03-01T07:47:10;38.65;;;16.08;;
2452;SDS011;63678;47.994;7.854;2023-03-01T07:49:42;35.47;;;18.17;;
2452;SDS011;63678;47.994;7.854;2023-03-01T07:52:17;36.63;;;17.25;;
2452;SDS011;63678;47.994;7.854;2023-03-01T07:54:50;37.47;;;16.92;;
2452;SDS011;63678;47.994;7.854;2023-03-01T07:57:23;32.58;;;15.90;;
2452;SDS011;63678;47.994;7.854;2023-03-01T07:59:56;34.38;;;16.08;;
2452;SDS011;63678;47.994;7.854;2023-03-01T08:02:29;31.40;;;16.73;;
2452;SDS011;63678;47.994;7.854;2023-03-01T08:05:02;36.88;;;16.60;;
2452;SDS011;63678;47.994;7.854;2023-03-01T08:07:55;33.80;;;14.75;;
2452;SDS011;63678;47.994;7.854;2023-03-01T08:10:28;34.45;;;16.05;;
2452;SDS011;63678;47.994;7.854;2023-03-01T08:13:00;31.30;;;16.75;;
2452;SDS011;63678;47.994;7.854;2023-03-01T08:15:33;32.37;;;16.70;;
2452;SDS011;63678;47.994;7.854;2023-03-01T08:18:06;35.28;;;17.00;;
2452;SDS011;63678;47.994;7.854;2023-03-01T08:20:40;34.10;;;16.55;;
2452;SDS011;63678;47.994;7.854;2023-03-01T08:23:12;36.25;;;16.40;;
2452;SDS011;63678;47.994;7.854;2023-03-01T08:25:47;35.40;;;16.95;;
2452;SDS011;63678;47.994;7.854;2023-03-01T08:28:20;32.77;;;17.03;;
2452;SDS011;63678;47.994;7.854;2023-03-01T08:34:08;33.55;;;16.80;;
2452;SDS011;63678;47.994;7.854;2023-03-01T08:36:49;32.17;;;17.08;;
2452;SDS011;63678;47.994;7.854;2023-03-01T08:39:46;33.53;;;17.10;;
2452;SDS011;63678;47.994;7.854;2023-03-01T08:42:40;35.60;;;17.87;;
2452;SDS011;63678;47.994;7.854;2023-03-01T08:45:15;31.35;;;17.83;;
2452;SDS011;63678;47.994;7.854;2023-03-01T08:47:52;36.92;;;16.48;;
2452;SDS011;63678;47.994;7.854;2023-03-01T08:50:25;34.47;;;17.63;;
2452;SDS011;63678;47.994;7.854;2023-03-01T08:53:00;34.10;;;16.38;;
2452;SDS011;63678;47.994;7.854;2023-03-01T08:55:31;32.67;;;17.97;;
2452;SDS011;63678;47.994;7.854;2023-03-01T08:58:04;34.88;;;16.92;;
2452;SDS011;63678;47.994;7.854;2023-03-01T09:00:36;33.15;;;16.98;;
2452;SDS011;63678;47.994;7.854;2023-03-01T09:03:29;33.08;;;17.13;;
2452;SDS011;63678;47.994;7.854;2023-03-01T09:06:03;33.63;;;17.17;;
2452;SDS011;63678;47.994;7.854;2023-03-01T09:08:58;31.37;;;17.23;;
2452;SDS011;63678;47.994;7.854;2023-03-01T09:11:54;29.65;;;16.60;;
2452;SDS011;63678;47.994;7.854;2023-03-01T09:14:44;33.03;;;16.75;;
2452;SDS011;63678;47.994;7.854;2023-03-01T09:17:17;37.40;;;17.80;;
2452;SDS011;63678;47.994;7.854;2023-03-01T09:20:11;37.83;;;17.52;;
2452;SDS011;63678;47.994;7.854;2023-03-01T09:22:46;38.63;;;18.47;;
2452;SDS011;63678;47.994;7.854;2023-03-01T09:25:18;30.08;;;17.02;;
2452;SDS011;63678;47.994;7.854;2023-03-01T09:27:52;34.90;;;17.13;;
2452;SDS011;63678;47.994;7.854;2023-03-01T09:30:26;30.17;;;16.27;;
2452;SDS011;63678;47.994;7.854;2023-03-01T09:32:59;36.65;;;16.88;;
2452;SDS011;63678;47.994;7.854;2023-03-01T09:35:32;40.40;;;18.17;;
2452;SDS011;63678;47.994;7.854;2023-03-01T09:38:05;36.40;;;18.73;;
2452;SDS011;63678;47.994;7.854;2023-03-01T09:40:41;32.63;;;15.93;;
2452;SDS011;63678;47.994;7.854;2023-03-01T09:46:19;35.28;;;17.25;;
2452;SDS011;63678;47.994;7.854;2023-03-01T09:49:16;35.80;;;16.53;;
2452;SDS011;63678;47.994;7.854;2023-03-01T09:52:06;39.15;;;18.23;;
2452;SDS011;63678;47.994;7.854;2023-03-01T09:54:56;31.73;;;16.98;;
2452;SDS011;63678;47.994;7.854;2023-03-01T10:00:27;31.13;;;17.25;;
2452;SDS011;63678;47.994;7.854;2023-03-01T10:03:38;34.70;;;16.40;;
2452;SDS011;63678;47.994;7.854;2023-03-01T10:06:19;33.25;;;17.17;;
2452;SDS011;63678;47.994;7.854;2023-03-01T10:09:07;42.25;;;16.13;;
2452;SDS011;63678;47.994;7.854;2023-03-01T10:11:47;37.08;;;17.15;;
2452;SDS011;63678;47.994;7.854;2023-03-01T10:18:42;31.53;;;16.67;;
2452;SDS011;63678;47.994;7.854;2023-03-01T10:20:58;31.42;;;16.65;;
2452;SDS011;63678;47.994;7.854;2023-03-01T10:23:34;30.27;;;16.15;;
2452;SDS011;63678;47.994;7.854;2023-03-01T10:29:34;29.70;;;15.85;;
2452;SDS011;63678;47.994;7.854;2023-03-01T10:32:18;32.23;;;15.77;;
2452;SDS011;63678;47.994;7.854;2023-03-01T10:35:17;34.22;;;17.38;;
2452;SDS011;63678;47.994;7.854;2023-03-01T10:38:14;36.63;;;17.13;;
2452;SDS011;63678;47.994;7.854;2023-03-01T10:43:45;31.45;;;17.48;;
2452;SDS011;63678;47.994;7.854;2023-03-01T10:46:34;33.70;;;16.60;;
2452;SDS011;63678;47.994;7.854;2023-03-01T10:49:14;33.30;;;16.60;;
2452;SDS011;63678;47.994;7.854;2023-03-01T10:51:54;31.83;;;16.15;;
2452;SDS011;63678;47.994;7.854;2023-03-01T10:54:31;35.17;;;17.23;;
2452;SDS011;63678;47.994;7.854;2023-03-01T10:57:04;35.47;;;17.63;;
2452;SDS011;63678;47.994;7.854;2023-03-01T10:59:38;33.83;;;16.03;;
2452;SDS011;63678;47.994;7.854;2023-03-01T11:07:54;29.20;;;16.63;;
2452;SDS011;63678;47.994;7.854;2023-03-01T11:10:31;33.03;;;17.52;;
2452;SDS011;63678;47.994;7.854;2023-03-01T11:13:16;33.90;;;17.37;;
2452;SDS011;63678;47.994;7.854;2023-03-01T11:16:01;32.85;;;16.38;;
2452;SDS011;63678;47.994;7.854;2023-03-01T11:18:39;30.23;;;16.77;;
2452;SDS011;63678;47.994;7.854;2023-03-01T11:21:18;31.17;;;17.70;;
2452;SDS011;63678;47.994;7.854;2023-03-01T11:23:51;34.05;;;17.05;;
2452;SDS011;63678;47.994;7.854;2023-03-01T11:26:23;28.60;;;15.73;;
2452;SDS011;63678;47.994;7.854;2023-03-01T11:28:56;31.48;;;17.05;;
2452;SDS011;63678;47.994;7.854;2023-03-01T11:31:35;32.17;;;17.25;;
2452;SDS011;63678;47.994;7.854;2023-03-01T11:34:16;31.95;;;16.92;;
2452;SDS011;63678;47.994;7.854;2023-03-01T11:36:59;22.23;;;11.80;;
2452;SDS011;63678;47.994;7.854;2023-03-01T11:39:44;31.40;;;17.20;;
2452;SDS011;63678;47.994;7.854;2023-03-01T11:49:01;31.48;;;16.45;;
2452;SDS011;63678;47.994;7.854;2023-03-01T11:52:39;32.47;;;16.88;;
2452;SDS011;63678;47.994;7.854;2023-03-01T12:08:26;30.98;;;15.25;;
2452;SDS011;63678;47.994;7.854;2023-03-01T12:15:00;31.25;;;15.50;;
2452;SDS011;63678;47.994;7.854;2023-03-01T12:21:05;28.25;;;15.05;;
2452;SDS011;63678;47.994;7.854;2023-03-01T12:27:24;25.90;;;15.17;;
2452;SDS011;63678;47.994;7.854;2023-03-01T12:34:22;24.52;;;14.05;;
2452;SDS011;63678;47.994;7.854;2023-03-01T12:43:46;21.67;;;12.10;;
2452;SDS011;63678;47.994;7.854;2023-03-01T12:50:04;24.88;;;12.80;;
2452;SDS011;63678;47.994;7.854;2023-03-01T12:52:51;25.88;;;13.48;;
2452;SDS011;63678;47.994;7.854;2023-03-01T13:07:16;25.02;;;13.52;;
2452;SDS011;63678;47.994;7.854;2023-03-01T13:13:19;22.40;;;12.68;;
2452;SDS011;63678;47.994;7.854;2023-03-01T13:15:57;25.88;;;14.38;;
2452;SDS011;63678;47.994;7.854;2023-03-01T13:19:05;27.50;;;13.23;;
2452;SDS011;63678;47.994;7.854;2023-03-01T13:21:53;24.83;;;12.95;;
2452;SDS011;63678;47.994;7.854;2023-03-01T13:24:27;24.23;;;13.50;;
2452;SDS011;63678;47.994;7.854;2023-03-01T13:29:57;22.95;;;12.73;;
2452;SDS011;63678;47.994;7.854;2023-03-01T13:32:38;23.75;;;12.68;;
2452;SDS011;63678;47.994;7.854;2023-03-01T13:37:50;23.35;;;13.10;;
2452;SDS011;63678;47.994;7.854;2023-03-01T13:42:55;24.58;;;13.07;;
2452;SDS011;63678;47.994;7.854;2023-03-01T13:45:40;24.05;;;13.82;;
2452;SDS011;63678;47.994;7.854;2023-03-01T13:48:20;24.85;;;14.30;;
2452;SDS011;63678;47.994;7.854;2023-03-01T13:50:59;25.65;;;14.43;;
2452;SDS011;63678;47.994;7.854;2023-03-01T13:53:45;25.07;;;13.20;;
2452;SDS011;63678;47.994;7.854;2023-03-01T13:56:20;25.88;;;14.15;;
2452;SDS011;63678;47.994;7.854;2023-03-01T13:58:58;23.60;;;12.93;;
2452;SDS011;63678;47.994;7.854;2023-03-01T14:01:35;24.08;;;13.27;;
2452;SDS011;63678;47.994;7.854;2023-03-01T14:04:28;25.05;;;13.10;;
2452;SDS011;63678;47.994;7.854;2023-03-01T14:07:18;25.33;;;14.30;;
2452;SDS011;63678;47.994;7.854;2023-03-01T14:09:54;26.10;;;13.52;;
2452;SDS011;63678;47.994;7.854;2023-03-01T14:15:34;23.33;;;13.38;;
2452;SDS011;63678;47.994;7.854;2023-03-01T14:18:14;23.52;;;13.80;;
2452;SDS011;63678;47.994;7.854;2023-03-01T14:21:08;22.80;;;13.03;;
2452;SDS011;63678;47.994;7.854;2023-03-01T14:23:40;26.63;;;14.20;;
2452;SDS011;63678;47.994;7.854;2023-03-01T14:26:13;22.90;;;13.07;;
2452;SDS011;63678;47.994;7.854;2023-03-01T14:28:53;29.70;;;13.70;;
2452;SDS011;63678;47.994;7.854;2023-03-01T14:31:37;23.92;;;13.77;;
2452;SDS011;63678;47.994;7.854;2023-03-01T14:34:24;22.77;;;13.30;;
2452;SDS011;63678;47.994;7.854;2023-03-01T14:36:56;23.02;;;12.43;;
2452;SDS011;63678;47.994;7.854;2023-03-01T14:39:40;32.88;;;16.80;;
2452;SDS011;63678;47.994;7.854;2023-03-01T14:42:12;22.08;;;13.27;;
2452;SDS011;63678;47.994;7.854;2023-03-01T14:44:47;24.73;;;13.30;;
2452;SDS011;63678;47.994;7.854;2023-03-01T14:50:05;25.40;;;13.55;;
2452;SDS011;63678;47.994;7.854;2023-03-01T14:52:54;24.85;;;14.60;;
2452;SDS011;63678;47.994;7.854;2023-03-01T14:55:31;23.55;;;13.13;;
2452;SDS011;63678;47.994;7.854;2023-03-01T14:58:13;23.02;;;13.80;;
2452;SDS011;63678;47.994;7.854;2023-03-01T15:03:34;28.10;;;14.05;;
2452;SDS011;63678;47.994;7.854;2023-03-01T15:06:09;24.80;;;13.48;;
2452;SDS011;63678;47.994;7.854;2023-03-01T15:08:47;26.48;;;14.20;;
2452;SDS011;63678;47.994;7.854;2023-03-01T15:11:24;24.20;;;13.82;;
2452;SDS011;63678;47.994;7.854;2023-03-01T15:14:05;23.80;;;14.45;;
2452;SDS011;63678;47.994;7.854;2023-03-01T15:17:32;22.17;;;13.07;;
2452;SDS011;63678;47.994;7.854;2023-03-01T15:20:18;26.25;;;13.93;;
2452;SDS011;63678;47.994;7.854;2023-03-01T15:22:57;23.60;;;13.50;;
2452;SDS011;63678;47.994;7.854;2023-03-01T15:25:31;25.30;;;13.48;;
2452;SDS011;63678;47.994;7.854;2023-03-01T15:28:05;28.40;;;15.75;;
2452;SDS011;63678;47.994;7.854;2023-03-01T15:30:44;29.15;;;17.42;;
2452;SDS011;63678;47.994;7.854;2023-03-01T15:33:19;31.45;;;17.98;;
2452;SDS011;63678;47.994;7.854;2023-03-01T15:35:51;31.52;;;17.23;;
2452;SDS011;63678;47.994;7.854;2023-03-01T15:41:02;33.20;;;17.43;;
2452;SDS011;63678;47.994;7.854;2023-03-01T15:43:52;28.98;;;16.60;;
2452;SDS011;63678;47.994;7.854;2023-03-01T15:52:04;36.20;;;18.90;;
2452;SDS011;63678;47.994;7.854;2023-03-01T15:55:01;33.60;;;19.13;;
2452;SDS011;63678;47.994;7.854;2023-03-01T15:58:09;35.25;;;18.35;;
2452;SDS011;63678;47.994;7.854;2023-03-01T16:00:47;35.90;;;18.65;;
2452;SDS011;63678;47.994;7.854;2023-03-01T16:03:34;36.83;;;20.05;;
2452;SDS011;63678;47.994;7.854;2023-03-01T16:06:08;37.88;;;18.88;;
2452;SDS011;63678;47.994;7.854;2023-03-01T16:08:42;37.27;;;19.97;;
2452;SDS011;63678;47.994;7.854;2023-03-01T16:11:18;35.47;;;18.98;;
2452;SDS011;63678;47.994;7.854;2023-03-01T16:13:51;39.70;;;19.75;;
2452;SDS011;63678;47.994;7.854;2023-03-01T16:16:24;42.80;;;19.15;;
2452;SDS011;63678;47.994;7.854;2023-03-01T16:18:56;34.95;;;17.80;;
2452;SDS011;63678;47.994;7.854;2023-03-01T16:21:28;35.70;;;19.27;;
2452;SDS011;63678;47.994;7.854;2023-03-01T16:24:01;36.33;;;18.02;;
2452;SDS011;63678;47.994;7.854;2023-03-01T16:26:34;35.65;;;18.77;;
2452;SDS011;63678;47.994;7.854;2023-03-01T16:29:08;38.40;;;19.17;;
2452;SDS011;63678;47.994;7.854;2023-03-01T16:31:41;39.78;;;18.88;;
2452;SDS011;63678;47.994;7.854;2023-03-01T16:36:53;34.83;;;18.05;;
2452;SDS011;63678;47.994;7.854;2023-03-01T16:39:25;35.63;;;19.00;;
2452;SDS011;63678;47.994;7.854;2023-03-01T16:41:59;36.47;;;18.17;;
2452;SDS011;63678;47.994;7.854;2023-03-01T16:44:32;40.50;;;19.52;;
2452;SDS011;63678;47.994;7.854;2023-03-01T16:47:05;41.27;;;20.13;;
2452;SDS011;63678;47.994;7.854;2023-03-01T16:49:37;36.08;;;18.35;;
2452;SDS011;63678;47.994;7.854;2023-03-01T16:52:09;35.38;;;18.55;;
2452;SDS011;63678;47.994;7.854;2023-03-01T16:54:42;38.88;;;19.95;;
2452;SDS011;63678;47.994;7.854;2023-03-01T16:57:15;36.63;;;18.80;;
2452;SDS011;63678;47.994;7.854;2023-03-01T16:59:50;37.47;;;19.17;;
2452;SDS011;63678;47.994;7.854;2023-03-01T17:02:25;38.13;;;19.40;;
2452;SDS011;63678;47.994;7.854;2023-03-01T17:04:57;35.55;;;19.27;;
2452;SDS011;63678;47.994;7.854;2023-03-01T17:07:30;40.78;;;19.85;;
2452;SDS011;63678;47.994;7.854;2023-03-01T17:10:08;38.88;;;20.13;;
2452;SDS011;63678;47.994;7.854;2023-03-01T17:12:42;40.33;;;19.40;;
2452;SDS011;63678;47.994;7.854;2023-03-01T17:15:14;39.55;;;19.35;;
2452;SDS011;63678;47.994;7.854;2023-03-01T17:17:46;38.67;;;20.08;;
2452;SDS011;63678;47.994;7.854;2023-03-01T17:20:22;38.17;;;18.90;;
2452;SDS011;63678;47.994;7.854;2023-03-01T17:22:54;40.28;;;19.55;;
2452;SDS011;63678;47.994;7.854;2023-03-01T17:25:27;38.07;;;20.07;;
2452;SDS011;63678;47.994;7.854;2023-03-01T17:27:59;35.08;;;18.17;;
2452;SDS011;63678;47.994;7.854;2023-03-01T17:30:32;43.08;;;20.02;;
2452;SDS011;63678;47.994;7.854;2023-03-01T17:33:04;42.53;;;20.80;;
2452;SDS011;63678;47.994;7.854;2023-03-01T17:35:37;41.67;;;20.85;;
2452;SDS011;63678;47.994;7.854;2023-03-01T17:38:09;39.37;;;20.23;;
2452;SDS011;63678;47.994;7.854;2023-03-01T17:40:43;37.63;;;19.60;;